Map

Track Data

SID SEASON NUMBER BASIN SUBBASIN NAME ISO_TIME NATURE LAT LON WMO_WIND WMO_PRES WMO_AGENCY TRACK_TYPE DIST2LAND LANDFALL IFLAG USA_AGENCY USA_ATCF_ID USA_LAT USA_LON USA_RECORD USA_STATUS USA_WIND USA_PRES USA_SSHS USA_R34_NE USA_R34_SE USA_R34_SW USA_R34_NW USA_R50_NE USA_R50_SE USA_R50_SW USA_R50_NW USA_R64_NE USA_R64_SE USA_R64_SW USA_R64_NW USA_POCI USA_ROCI USA_RMW USA_EYE TOKYO_LAT TOKYO_LON TOKYO_GRADE TOKYO_WIND TOKYO_PRES TOKYO_R50_DIR TOKYO_R50_LONG TOKYO_R50_SHORT TOKYO_R30_DIR TOKYO_R30_LONG TOKYO_R30_SHORT TOKYO_LAND CMA_LAT CMA_LON CMA_CAT CMA_WIND CMA_PRES HKO_LAT HKO_LON HKO_CAT HKO_WIND HKO_PRES NEWDELHI_LAT NEWDELHI_LON NEWDELHI_GRADE NEWDELHI_WIND NEWDELHI_PRES NEWDELHI_CI NEWDELHI_DP NEWDELHI_POCI REUNION_LAT REUNION_LON REUNION_TYPE REUNION_WIND REUNION_PRES REUNION_TNUM REUNION_CI REUNION_RMW REUNION_R34_NE REUNION_R34_SE REUNION_R34_SW REUNION_R34_NW REUNION_R50_NE REUNION_R50_SE REUNION_R50_SW REUNION_R50_NW REUNION_R64_NE REUNION_R64_SE REUNION_R64_SW REUNION_R64_NW BOM_LAT BOM_LON BOM_TYPE BOM_WIND BOM_PRES BOM_TNUM BOM_CI BOM_RMW BOM_R34_NE BOM_R34_SE BOM_R34_SW BOM_R34_NW BOM_R50_NE BOM_R50_SE BOM_R50_SW BOM_R50_NW BOM_R64_NE BOM_R64_SE BOM_R64_SW BOM_R64_NW BOM_ROCI BOM_POCI BOM_EYE BOM_POS_METHOD BOM_PRES_METHOD NADI_LAT NADI_LON NADI_CAT NADI_WIND NADI_PRES WELLINGTON_LAT WELLINGTON_LON WELLINGTON_WIND WELLINGTON_PRES DS824_LAT DS824_LON DS824_STAGE DS824_WIND DS824_PRES TD9636_LAT TD9636_LON TD9636_STAGE TD9636_WIND TD9636_PRES TD9635_LAT TD9635_LON TD9635_WIND TD9635_PRES TD9635_ROCI NEUMANN_LAT NEUMANN_LON NEUMANN_CLASS NEUMANN_WIND NEUMANN_PRES MLC_LAT MLC_LON MLC_CLASS MLC_WIND MLC_PRES USA_GUST BOM_GUST BOM_GUST_PER REUNION_GUST REUNION_GUST_PER USA_SEAHGT USA_SEARAD_NE USA_SEARAD_SE USA_SEARAD_SW USA_SEARAD_NW STORM_SPEED STORM_DIR
1887158N18071 1887 14 NI AS NOT_NAMED 1887-06-07 00:00:00 TS 17.5000 71.4000 main 177 177 _________O____ -1 17.5000 71.4000 TC 64 6 269
1887158N18071 1887 14 NI AS NOT_NAMED 1887-06-07 03:00:00 TS 17.4935 71.1000 main 206 206 _________PO___ -1 17.4902 70.9500 TC 64 17.5000 71.4000 4 7 270
1887158N18071 1887 14 NI AS NOT_NAMED 1887-06-07 06:00:00 TS 17.5052 70.6831 main 245 245 _________OP___ -1 17.5000 70.5000 TC 64 17.5131 70.9577 4 8 273
1887158N18071 1887 14 NI AS NOT_NAMED 1887-06-07 09:00:00 TS 17.5373 70.2481 main 296 296 _________PP___ -1 17.5424 70.0500 TC 64 17.5305 70.5123 4 8 275
1887158N18071 1887 14 NI AS NOT_NAMED 1887-06-07 12:00:00 TS 17.5789 69.8304 main 334 334 _________OP___ -1 17.6000 69.6000 TC 64 17.5578 70.0608 4 8 276
1887158N18071 1887 14 NI AS NOT_NAMED 1887-06-07 15:00:00 TS 17.6212 69.3750 main 376 376 _________PO___ -1 17.6424 69.1499 TC 64 17.6000 69.6000 4 9 277
1887158N18071 1887 14 NI AS NOT_NAMED 1887-06-07 18:00:00 TS 17.6803 68.9149 main 390 390 _________OP___ -1 17.7000 68.7000 TC 64 17.6606 69.1298 4 9 279
1887158N18071 1887 14 NI AS NOT_NAMED 1887-06-07 21:00:00 TS 17.7675 68.4489 main 410 410 _________PP___ -1 17.8000 68.2351 TC 64 17.7351 68.6627 4 9 282
1887158N18071 1887 14 NI AS NOT_NAMED 1887-06-08 00:00:00 TS 17.8585 68.0071 main 425 425 _________OP___ -1 17.9000 67.8000 TC 64 17.8169 68.2142 4 8 281
1887158N18071 1887 14 NI AS NOT_NAMED 1887-06-08 03:00:00 TS 17.9249 67.6137 main 449 447 _________PO___ -1 17.9499 67.4274 TC 64 17.9000 67.8000 4 7 280
1887158N18071 1887 14 NI AS NOT_NAMED 1887-06-08 06:00:00 TS 17.9872 67.2695 main 461 461 _________OP___ -1 18.0000 67.1000 TC 64 17.9745 67.4389 4 6 283
1887158N18071 1887 14 NI AS NOT_NAMED 1887-06-08 09:00:00 TS 18.0746 66.9562 main 474 474 _________PP___ -1 18.0999 66.8000 TC 64 18.0494 67.1123 4 6 287
1887158N18071 1887 14 NI AS NOT_NAMED 1887-06-08 12:00:00 TS 18.1623 66.6523 main 489 489 _________OP___ -1 18.2000 66.5000 TC 64 18.1246 66.8046 4 6 284
1887158N18071 1887 14 NI AS NOT_NAMED 1887-06-08 15:00:00 TS 18.2250 66.3250 main 519 519 _________PO___ -1 18.2500 66.1499 TC 64 18.2000 66.5000 4 6 281
1887158N18071 1887 14 NI AS NOT_NAMED 1887-06-08 18:00:00 TS 18.2853 65.9975 main 534 534 _________OP___ -1 18.3000 65.8000 TC 64 18.2705 66.1951 4 6 283
1887158N18071 1887 14 NI AS NOT_NAMED 1887-06-08 21:00:00 TS 18.3671 65.7010 main 549 549 _________PP___ -1 18.3923 65.5150 TC 64 18.3418 65.8872 4 6 287
1887158N18071 1887 14 NI AS NOT_NAMED 1887-06-09 00:00:00 TS 18.4586 65.3803 main 559 559 _________OP___ -1 18.5000 65.2000 TC 64 18.4173 65.5607 4 7 285
1887158N18071 1887 14 NI AS NOT_NAMED 1887-06-09 03:00:00 TS 18.5500 64.9862 main 579 579 _________PO___ -1 18.6000 64.7725 TC 64 18.5000 65.2000 4 8 283
1887158N18071 1887 14 NI AS NOT_NAMED 1887-06-09 06:00:00 TS 18.6485 64.5430 main 617 585 _________OP___ -1 18.7000 64.3000 TC 64 18.5969 64.7860 4 9 283
1887158N18071 1887 14 NI AS NOT_NAMED 1887-06-09 09:00:00 TS 18.7500 64.0938 main 585 543 _________PP___ -1 18.7999 63.8499 TC 64 18.7001 64.3376 4 9 283
1887158N18071 1887 14 NI AS NOT_NAMED 1887-06-09 12:00:00 TS 18.8516 63.6352 main 528 493 _________OP___ -1 18.9000 63.4000 TC 64 18.8031 63.8704 4 9 283
1887158N18071 1887 14 NI AS NOT_NAMED 1887-06-09 15:00:00 TS 18.9537 63.1750 main 487 444 _________PO___ -1 19.0074 62.9500 TC 64 18.9000 63.4000 4 9 282
1887158N18071 1887 14 NI AS NOT_NAMED 1887-06-09 18:00:00 TS 19.0453 62.7067 main 444 397 _________OP___ -1 19.1000 62.5000 TC 64 18.9905 62.9135 4 9 280
1887158N18071 1887 14 NI AS NOT_NAMED 1887-06-09 21:00:00 TS 19.1152 62.2225 main 397 358 _________PP___ -1 19.1576 62.0124 TC 64 19.0729 62.4326 4 9 278
1887158N18071 1887 14 NI AS NOT_NAMED 1887-06-10 00:00:00 TS 19.1719 61.7927 main 358 336 _________OP___ -1 19.2000 61.6000 TC 64 19.1437 61.9854 4 7 279
1887158N18071 1887 14 NI AS NOT_NAMED 1887-06-10 03:00:00 TS 19.2286 61.4850 main 336 313 _________PO___ -1 19.2573 61.3700 TC 64 19.2000 61.6000 4 5 281
1887158N18071 1887 14 NI AS NOT_NAMED 1887-06-10 06:00:00 TS 19.2734 61.2551 main 313 286 _________OP___ -1 19.3000 61.2000 TC 64 19.2469 61.3102 4 4 278
1887158N18071 1887 14 NI AS NOT_NAMED 1887-06-10 09:00:00 TS 19.2934 61.0199 main 286 269 _________PP___ -1 19.3075 60.9575 TC 64 19.2792 61.0824 4 4 273
1887158N18071 1887 14 NI AS NOT_NAMED 1887-06-10 12:00:00 TS 19.2985 60.7942 main 269 251 _________OP___ -1 19.3000 60.7000 TC 64 19.2970 60.8884 4 4 271
1887158N18071 1887 14 NI AS NOT_NAMED 1887-06-10 15:00:00 TS 19.3037 60.5713 main 251 233 _________PO___ -1 19.3075 60.4425 TC 56 19.3000 60.7000 4 4 269
1887158N18071 1887 14 NI AS NOT_NAMED 1887-06-10 18:00:00 TS 19.2934 60.3684 main 233 216 _________OP___ -1 19.3000 60.2000 TC 49 19.2885 60.4947 4 4 264
1887158N18071 1887 14 NI AS NOT_NAMED 1887-06-10 21:00:00 TS 19.2633 60.1594 main 216 206 _________PP___ -1 19.2600 59.9900 TC 41 19.2656 60.2724 4 4 260
1887158N18071 1887 14 NI AS NOT_NAMED 1887-06-11 00:00:00 TS 19.2232 59.9593 main 206 191 _________OP___ -1 19.2000 59.8000 TC 34 19.2348 60.0390 4 3 259
1887158N18071 1887 14 NI AS NOT_NAMED 1887-06-11 03:00:00 NR 19.2000 59.8000 main 191 __________O___ -1 TC 19.2000 59.8000 2 3 261

About IBTrACS Database

This database is a web-friendly format of International Best Track Archive for Climate Stewardship (IBTrACS), a global best track data archive curated by NOAA dating back to 1842.

Updated: 2021-11-26